Time;durP1;ratioP1;P1;durP2;ratioP2;P2;SDS_P1;SDS_P2;PMS_P1;PMS_P2;Temp;Humidity;BMP_temperature;BMP_pressure;BME280_temperature;BME280_humidity;BME280_pressure;Samples;Min_cycle;Max_cycle;Signal;HPM_P1;HPM_P2
2021/06/02 00:01:38;;;;;;;18.85;8.73;;;;;;;12.76;61.72;99270.47;2190224;81;21009;-81
2021/06/02 00:04:39;;;;;;;17.95;9.93;;;;;;;12.75;61.68;99273.95;2190095;81;21017;-79
2021/06/02 00:07:41;;;;;;;15.63;9.40;;;;;;;12.75;61.61;99277.89;2193892;81;21444;-80
2021/06/02 00:10:42;;;;;;;16.97;9.38;;;;;;;12.73;61.57;99275.68;2184413;81;21095;-81
2021/06/02 00:13:43;;;;;;;16.93;9.60;;;;;;;12.76;61.58;99285.31;2181172;81;21079;-80
2021/06/02 00:16:44;;;;;;;15.43;9.40;;;;;;;12.73;61.39;99281.35;2175572;81;21076;-81
2021/06/02 00:19:45;;;;;;;57.53;42.43;;;;;;;12.73;61.33;99279.61;2190829;81;20993;-81
2021/06/02 00:22:46;;;;;;;25.57;13.35;;;;;;;12.73;61.28;99278.30;2182718;81;21420;-80
2021/06/02 00:25:48;;;;;;;24.25;11.45;;;;;;;12.73;61.40;99278.30;2185134;81;21123;-80
2021/06/02 00:28:49;;;;;;;22.73;9.73;;;;;;;12.73;61.15;99273.50;2181927;81;21136;-81
2021/06/02 00:31:50;;;;;;;17.57;10.60;;;;;;;12.70;61.34;99273.46;2192813;81;21100;-80
2021/06/02 00:34:51;;;;;;;18.32;9.78;;;;;;;12.71;61.14;99280.45;2187606;81;21008;-79
2021/06/02 00:37:52;;;;;;;16.87;10.32;;;;;;;12.71;61.21;99273.48;2190170;81;21060;-80
2021/06/02 00:40:53;;;;;;;15.70;10.38;;;;;;;12.68;61.15;99285.23;2181338;81;21115;-80
2021/06/02 00:43:54;;;;;;;11.70;8.55;;;;;;;12.64;61.37;99280.83;2193435;81;21140;-79
2021/06/02 00:46:55;;;;;;;18.10;10.23;;;;;;;12.60;61.69;99281.66;2178970;81;21124;-81
2021/06/02 00:49:56;;;;;;;13.62;9.93;;;;;;;12.57;61.59;99283.36;2196808;81;21076;-81
2021/06/02 00:52:57;;;;;;;17.35;9.85;;;;;;;12.53;61.88;99282.88;2188965;81;21397;-79
2021/06/02 00:55:59;;;;;;;15.43;9.65;;;;;;;12.48;62.18;99284.14;2175240;81;21109;-82
2021/06/02 00:59:00;;;;;;;13.58;8.63;;;;;;;12.38;62.36;99284.90;2172862;81;21367;-83
2021/06/02 01:02:01;;;;;;;15.80;9.45;;;;;;;12.28;62.86;99277.37;2186571;81;21056;-80
2021/06/02 01:05:02;;;;;;;17.00;9.73;;;;;;;12.15;63.21;99282.44;2187453;81;21365;-80
2021/06/02 01:08:03;;;;;;;12.63;9.10;;;;;;;12.01;63.38;99287.46;2181388;81;21049;-80
2021/06/02 01:11:03;;;;;;;30.77;22.90;;;;;;;11.85;63.63;99286.38;2168108;81;21428;-80
2021/06/02 01:14:04;;;;;;;16.53;11.40;;;;;;;11.73;63.49;99291.41;2187698;81;21132;-80
2021/06/02 01:17:07;;;;;;;17.50;10.43;;;;;;;11.61;63.60;99298.64;2184198;81;21045;-80
2021/06/02 01:20:08;;;;;;;15.60;10.47;;;;;;;11.52;63.30;99297.63;2182240;81;21493;-80
2021/06/02 01:23:09;;;;;;;17.03;10.13;;;;;;;11.46;63.26;99302.34;2191103;81;20985;-79
2021/06/02 01:26:10;;;;;;;15.80;10.50;;;;;;;11.39;63.27;99305.28;2172399;81;21173;-81
2021/06/02 01:29:11;;;;;;;20.50;10.33;;;;;;;11.30;63.34;99301.64;2185739;81;21036;-80
2021/06/02 01:32:12;;;;;;;17.17;10.90;;;;;;;11.20;63.45;99305.80;2183832;81;21150;-81
2021/06/02 01:35:13;;;;;;;13.37;9.77;;;;;;;11.10;63.76;99311.73;2191627;81;21021;-80
2021/06/02 01:38:14;;;;;;;20.07;10.30;;;;;;;10.98;63.87;99313.70;2183487;81;21140;-81
2021/06/02 01:41:15;;;;;;;20.90;10.63;;;;;;;10.87;64.38;99311.75;2187490;81;21399;-80
2021/06/02 01:44:17;;;;;;;15.37;9.60;;;;;;;10.79;64.19;99315.53;2184731;81;21428;-80
2021/06/02 01:47:18;;;;;;;77.50;12.80;;;;;;;10.70;64.50;99321.47;2182846;81;21111;-80
2021/06/02 01:50:19;;;;;;;14.67;9.53;;;;;;;10.59;64.90;99322.11;2171922;81;20985;-80
2021/06/02 01:53:21;;;;;;;13.53;9.60;;;;;;;10.48;65.03;99323.20;2185388;81;21026;-81
2021/06/02 01:56:22;;;;;;;20.03;10.20;;;;;;;10.42;65.12;99325.70;2189475;81;21504;-81
2021/06/02 01:59:23;;;;;;;20.50;9.43;;;;;;;10.35;65.50;99319.87;2182791;81;21012;-80
2021/06/02 02:02:24;;;;;;;19.23;10.17;;;;;;;10.27;65.45;99322.75;2178774;81;21040;-81
2021/06/02 02:05:25;;;;;;;132.03;18.73;;;;;;;10.19;65.25;99324.73;2163873;81;20977;-81
2021/06/02 02:08:26;;;;;;;12.10;9.27;;;;;;;10.13;65.38;99323.30;2188386;81;21044;-81
2021/06/02 02:11:27;;;;;;;15.27;9.50;;;;;;;10.10;65.42;99319.75;2189217;81;21056;-81
2021/06/02 02:14:28;;;;;;;30.73;10.47;;;;;;;10.04;65.37;99313.98;2176359;81;21174;-81
2021/06/02 02:17:29;;;;;;;88.40;15.40;;;;;;;9.97;65.22;99306.87;2182551;81;21384;-80
2021/06/02 02:20:30;;;;;;;65.47;14.37;;;;;;;9.97;65.11;99316.00;2176491;81;21149;-80
2021/06/02 02:23:31;;;;;;;14.77;9.00;;;;;;;9.93;65.15;99314.59;2169446;81;21499;-81
2021/06/02 02:26:32;;;;;;;17.57;8.73;;;;;;;9.87;65.21;99320.56;2188613;81;21668;-81
2021/06/02 02:29:33;;;;;;;11.53;8.70;;;;;;;9.83;64.96;99323.95;2172199;81;21297;-81
2021/06/02 02:32:34;;;;;;;10.60;9.00;;;;;;;9.78;65.04;99330.78;2175526;81;21438;-81
2021/06/02 02:35:35;;;;;;;14.17;8.90;;;;;;;9.72;65.42;99338.04;2180405;81;21032;-82
2021/06/02 02:38:36;;;;;;;18.53;9.30;;;;;;;9.71;65.77;99339.31;2193694;81;21530;-81
2021/06/02 02:41:37;;;;;;;12.77;9.30;;;;;;;9.68;65.83;99339.23;2187360;81;21008;-80
2021/06/02 02:44:38;;;;;;;15.60;9.67;;;;;;;9.60;65.83;99338.18;2174944;81;21381;-81
2021/06/02 02:47:40;;;;;;;34.47;10.57;;;;;;;9.47;65.89;99346.98;2180675;81;21033;-82
2021/06/02 02:50:41;;;;;;;17.47;9.37;;;;;;;9.27;65.92;99359.94;2173619;81;21027;-80
2021/06/02 02:53:42;;;;;;;18.07;9.03;;;;;;;9.15;66.29;99353.11;2192324;81;21405;-81
2021/06/02 02:56:43;;;;;;;17.67;9.37;;;;;;;9.11;66.76;99359.09;2164176;81;20996;-81
2021/06/02 02:59:44;;;;;;;15.27;8.80;;;;;;;8.98;66.66;99360.91;2190969;81;21364;-82
2021/06/02 03:02:46;;;;;;;12.87;9.30;;;;;;;8.91;66.74;99359.88;2185212;81;21075;-82
2021/06/02 03:05:47;;;;;;;12.87;9.83;;;;;;;8.86;66.82;99364.08;2164139;81;21095;-81
2021/06/02 03:08:47;;;;;;;17.07;9.33;;;;;;;8.73;66.95;99373.27;2182079;81;21028;-81
2021/06/02 03:11:48;;;;;;;53.00;12.53;;;;;;;8.68;67.01;99369.66;2178947;81;20986;-80
2021/06/02 03:14:50;;;;;;;91.47;14.60;;;;;;;8.66;67.41;99374.33;2173380;81;21104;-81
2021/06/02 03:17:50;;;;;;;21.93;9.80;;;;;;;8.63;67.44;99376.02;2192624;81;20981;-81
2021/06/02 03:20:51;;;;;;;13.33;8.60;;;;;;;8.72;67.47;99379.32;2190799;81;20996;-81
2021/06/02 03:23:52;;;;;;;15.80;9.50;;;;;;;8.75;67.37;99375.92;2179409;81;21436;-81
2021/06/02 03:26:53;;;;;;;13.33;8.87;;;;;;;8.80;67.44;99387.34;2178732;81;21145;-81
2021/06/02 03:29:54;;;;;;;574.03;57.90;;;;;;;8.84;67.22;99379.66;2185601;81;21372;-79
2021/06/02 03:32:55;;;;;;;20.23;9.47;;;;;;;8.79;67.31;99387.76;2186436;81;21124;-81
2021/06/02 03:35:57;;;;;;;12.60;8.80;;;;;;;8.75;67.50;99388.52;2185653;81;21148;-81
2021/06/02 03:38:58;;;;;;;11.87;8.23;;;;;;;8.79;67.85;99387.76;2168524;81;21085;-82
2021/06/02 03:41:59;;;;;;;10.73;8.63;;;;;;;8.86;67.71;99389.69;2189002;81;21009;-81
2021/06/02 03:45:00;;;;;;;58.47;12.77;;;;;;;8.86;67.88;99391.41;2173348;81;21023;-81
2021/06/02 03:48:01;;;;;;;28.20;9.30;;;;;;;8.93;67.98;99392.92;2171302;81;21036;-81
2021/06/02 03:51:02;;;;;;;16.20;9.27;;;;;;;9.06;68.02;99393.25;2194398;81;21068;-80
2021/06/02 03:54:03;;;;;;;17.47;8.60;;;;;;;9.21;68.36;99394.95;2178666;81;21116;-81
2021/06/02 03:57:04;;;;;;;61.63;13.23;;;;;;;9.43;67.92;99394.65;2193507;81;21089;-82
2021/06/02 04:00:06;;;;;;;200.17;25.30;;;;;;;9.53;67.68;99392.73;2187393;81;20990;-82
2021/06/02 04:03:07;;;;;;;166.53;19.97;;;;;;;9.61;67.75;99399.89;2170741;81;21476;-81
2021/06/02 04:06:07;;;;;;;89.17;13.67;;;;;;;9.74;67.55;99398.03;2192858;81;21122;-82
2021/06/02 04:09:09;;;;;;;23.00;9.60;;;;;;;10.03;67.46;99403.50;2185025;81;21534;-81
2021/06/02 04:12:10;;;;;;;13.73;8.67;;;;;;;10.29;67.19;99401.51;2188561;81;21456;-80
2021/06/02 04:15:11;;;;;;;11.20;8.83;;;;;;;10.64;67.27;99399.67;2188823;81;21060;-81
2021/06/02 04:18:12;;;;;;;22.27;14.67;;;;;;;11.00;66.91;99396.02;2193090;81;21092;-81
2021/06/02 04:21:13;;;;;;;12.33;8.90;;;;;;;11.28;66.14;99398.31;2189932;81;21108;-81
2021/06/02 04:24:14;;;;;;;13.13;8.30;;;;;;;11.51;65.63;99395.21;2188156;81;21017;-81
2021/06/02 04:27:14;;;;;;;69.07;10.07;;;;;;;11.72;65.46;99404.29;2187212;81;21190;-81
2021/06/02 04:30:15;;;;;;;117.17;15.33;;;;;;;11.94;64.87;99407.27;2183924;81;21133;-81
2021/06/02 04:33:28;;;;;;;13.88;8.00;;;;;;;12.18;64.22;99408.09;2138281;81;21275;-81
2021/06/02 04:36:29;;;;;;;13.03;8.45;;;;;;;12.44;64.12;99414.14;2156711;81;21043;-83
2021/06/02 04:39:31;;;;;;;25.05;10.93;;;;;;;12.74;63.40;99414.96;2155558;82;21057;-84
2021/06/02 04:42:31;;;;;;;36.90;9.88;;;;;;;13.96;64.94;99416.25;2163162;82;21028;-80
2021/06/02 04:45:32;;;;;;;19.15;8.13;;;;;;;14.82;61.24;99411.53;2155569;82;21058;-81
2021/06/02 04:48:33;;;;;;;8.63;6.97;;;;;;;14.82;59.78;99412.84;2151912;82;21017;-80
2021/06/02 04:51:34;;;;;;;84.32;13.45;;;;;;;14.76;60.19;99430.78;2151691;82;21053;-81
2021/06/02 04:54:35;;;;;;;69.77;45.67;;;;;;;14.74;59.43;99431.61;2149904;82;21089;-82
2021/06/02 04:57:36;;;;;;;17.20;10.78;;;;;;;14.88;58.54;99420.32;2137187;82;21005;-81
2021/06/02 05:00:37;;;;;;;17.05;7.40;;;;;;;15.07;57.95;99423.89;2146009;82;20986;-82
2021/06/02 05:03:38;;;;;;;10.48;6.85;;;;;;;15.38;56.82;99426.59;2158245;82;21128;-82
2021/06/02 05:06:39;;;;;;;12.43;6.65;;;;;;;15.65;56.11;99421.42;2152849;82;21014;-82
2021/06/02 05:09:40;;;;;;;17.40;7.65;;;;;;;15.91;55.32;99422.30;2233453;78;21070;-80
2021/06/02 05:12:41;;;;;;;62.30;9.35;;;;;;;16.18;53.74;99433.25;2156418;82;21062;-82
2021/06/02 05:15:42;;;;;;;9.85;6.22;;;;;;;16.39;52.82;99428.38;2145219;82;21131;-80
2021/06/02 05:18:43;;;;;;;12.55;6.60;;;;;;;16.64;52.26;99434.93;2151431;82;21021;-80
2021/06/02 05:22:05;;;;;;;13.22;6.35;;;;;;;16.87;51.56;99434.44;2147983;82;21196;-78
2021/06/02 05:25:07;;;;;;;777.53;81.37;;;;;;;17.12;51.15;99437.84;2240393;79;21139;-78
2021/06/02 05:28:08;;;;;;;17.60;6.40;;;;;;;17.34;50.90;99435.95;2234513;79;21064;-80
2021/06/02 05:31:09;;;;;;;10.50;5.92;;;;;;;17.49;49.72;99438.53;2150510;82;21282;-80
2021/06/02 05:34:10;;;;;;;8.25;6.00;;;;;;;17.69;49.09;99443.70;2236106;79;21020;-80
2021/06/02 05:37:11;;;;;;;14.28;5.83;;;;;;;17.97;48.84;99440.41;2144416;82;21018;-80
2021/06/02 05:40:13;;;;;;;10.20;5.22;;;;;;;18.20;48.64;99442.84;2147610;82;21142;-79
2021/06/02 05:43:14;;;;;;;39.70;7.33;;;;;;;18.41;47.39;99440.02;2157977;82;20993;-78
2021/06/02 05:46:15;;;;;;;6.70;5.00;;;;;;;18.43;45.72;99433.83;2154564;82;21101;-81
2021/06/02 05:49:16;;;;;;;7.80;4.05;;;;;;;18.54;45.71;99448.25;2243669;79;20989;-80
2021/06/02 05:52:17;;;;;;;6.83;4.42;;;;;;;18.72;45.69;99450.72;2229143;79;21397;-80
2021/06/02 05:55:18;;;;;;;6.53;4.72;;;;;;;18.91;44.51;99444.77;2142222;82;21056;-82
2021/06/02 05:58:19;;;;;;;5.00;4.03;;;;;;;19.10;44.46;99450.73;2229826;79;21009;-81
2021/06/02 06:01:20;;;;;;;4.67;3.58;;;;;;;19.25;43.65;99452.30;2151265;82;21060;-79
2021/06/02 06:04:21;;;;;;;7.55;3.40;;;;;;;19.43;43.11;99451.17;2238363;79;21145;-80
2021/06/02 06:07:22;;;;;;;23.90;19.65;;;;;;;19.58;42.11;99454.95;2231556;79;21018;-80
2021/06/02 06:10:23;;;;;;;7.83;4.70;;;;;;;19.80;41.91;99453.73;2245138;79;21096;-80
2021/06/02 06:16:27;;;;;;;31.10;5.33;;;;;;;20.06;40.89;99453.33;2207942;79;20981;-82
2021/06/02 06:19:28;;;;;;;15.50;4.00;;;;;;;20.27;39.88;99458.72;2139531;82;21036;-81
2021/06/02 06:22:29;;;;;;;8.85;2.90;;;;;;;20.41;38.39;99456.72;2220548;79;20996;-82
2021/06/02 06:25:30;;;;;;;3.00;2.70;;;;;;;20.50;38.45;99458.33;2233385;79;21040;-82
2021/06/02 06:28:31;;;;;;;7.30;2.87;;;;;;;20.70;38.58;99460.16;2226636;79;20971;-83
2021/06/02 06:31:32;;;;;;;6.78;2.92;;;;;;;20.87;37.25;99459.41;2244486;79;20977;-82
2021/06/02 06:34:33;;;;;;;3.72;3.00;;;;;;;21.08;36.88;99458.09;2231591;79;21050;-83
2021/06/02 06:37:34;;;;;;;7.95;3.27;;;;;;;21.26;36.41;99462.16;2239212;79;21072;-81
2021/06/02 06:40:35;;;;;;;16.70;3.83;;;;;;;21.36;35.91;99458.86;2223488;79;21130;-80
2021/06/02 06:43:36;;;;;;;4.47;2.60;;;;;;;21.45;34.86;99462.18;2144262;82;21012;-82
2021/06/02 06:46:37;;;;;;;3.33;1.98;;;;;;;21.55;32.79;99453.55;2230468;79;20994;-82
2021/06/02 06:49:38;;;;;;;5.78;2.33;;;;;;;21.47;32.96;99463.02;2231585;79;20981;-81
2021/06/02 06:52:39;;;;;;;2.98;2.08;;;;;;;21.47;31.35;99464.34;2232673;79;21391;-82
2021/06/02 06:55:41;;;;;;;3.52;2.15;;;;;;;21.49;31.52;99465.19;2221685;79;21089;-82
2021/06/02 06:58:42;;;;;;;235.65;15.60;;;;;;;21.55;30.78;99465.50;2226978;79;21211;-83
2021/06/02 07:01:43;;;;;;;4.55;1.85;;;;;;;21.77;29.82;99454.83;2224698;79;21086;-82
2021/06/02 07:04:43;;;;;;;3.95;2.22;;;;;;;21.76;29.68;99469.02;2229734;79;21041;-82
2021/06/02 07:07:45;;;;;;;3.70;2.70;;;;;;;21.58;29.52;99467.64;2232671;79;21047;-80
2021/06/02 07:10:46;;;;;;;3.80;2.12;;;;;;;21.89;29.57;99462.96;2159632;82;21461;-82
2021/06/02 07:13:47;;;;;;;6.12;2.27;;;;;;;22.07;29.51;99467.86;2143287;82;21004;-81
2021/06/02 07:16:48;;;;;;;6.25;2.47;;;;;;;22.09;29.23;99472.69;2151140;82;21018;-80
2021/06/02 07:19:51;;;;;;;3.42;2.60;;;;;;;22.20;30.29;99477.73;2155112;82;21112;-82
2021/06/02 07:22:52;;;;;;;22.45;17.07;;;;;;;22.41;30.23;99482.95;2232378;79;21090;-82
2021/06/02 07:25:53;;;;;;;42.15;6.05;;;;;;;22.69;28.69;99483.13;2233014;79;21069;-80
2021/06/02 07:28:54;;;;;;;3.77;2.30;;;;;;;22.69;28.77;99484.00;2151162;82;21010;-81
2021/06/02 07:31:56;;;;;;;7.12;2.80;;;;;;;22.79;28.48;99481.50;2158754;82;21096;-81
2021/06/02 07:34:57;;;;;;;2.90;2.67;;;;;;;23.06;29.99;99493.20;2165859;82;21158;-82
2021/06/02 07:37:58;;;;;;;3.85;2.80;;;;;;;23.29;28.72;99486.33;2153302;82;21014;-81
2021/06/02 07:40:59;;;;;;;4.10;2.50;;;;;;;23.43;28.93;99485.49;2234311;79;21159;-82
2021/06/02 07:44:00;;;;;;;4.70;2.40;;;;;;;23.30;28.27;99490.74;2153556;82;21092;-80
2021/06/02 07:47:01;;;;;;;4.95;2.20;;;;;;;23.24;27.63;99492.25;2220784;79;21014;-81
2021/06/02 07:50:02;;;;;;;8.30;2.70;;;;;;;23.47;27.98;99490.69;2224453;79;21012;-80
2021/06/02 07:53:03;;;;;;;3.33;2.52;;;;;;;23.57;27.86;99497.09;2224645;79;21032;-81
2021/06/02 07:56:04;;;;;;;3.62;2.05;;;;;;;23.65;27.62;99491.07;2234819;79;21050;-80
2021/06/02 07:59:05;;;;;;;3.27;2.10;;;;;;;23.86;25.80;99485.06;2237577;79;21022;-82
2021/06/02 08:02:07;;;;;;;11.78;2.80;;;;;;;23.88;26.23;99493.89;2154084;82;21013;-78
2021/06/02 08:05:09;;;;;;;4.20;2.10;;;;;;;23.77;25.46;99500.02;2155101;82;21038;-80
2021/06/02 08:08:10;;;;;;;2.75;2.00;;;;;;;23.58;25.96;99501.05;2227368;79;21374;-80
2021/06/02 08:11:11;;;;;;;3.40;2.00;;;;;;;23.61;26.72;99503.62;2232910;79;20998;-79
2021/06/02 08:14:13;;;;;;;15.03;3.22;;;;;;;23.59;24.94;99509.45;2160780;82;21517;-79
2021/06/02 08:17:14;;;;;;;4.50;2.15;;;;;;;23.44;26.10;99513.42;2150683;82;21043;-81
2021/06/02 08:20:16;;;;;;;3.27;2.10;;;;;;;23.65;25.71;99513.27;2229722;79;20965;-80
2021/06/02 08:23:17;;;;;;;5.80;2.25;;;;;;;23.51;25.02;99524.77;2155187;82;21685;-80
2021/06/02 08:26:18;;;;;;;9.43;2.60;;;;;;;23.32;26.01;99516.41;2151098;82;21062;-81
2021/06/02 08:29:19;;;;;;;4.17;2.00;;;;;;;23.79;25.48;99518.17;2141411;82;21069;-80
2021/06/02 08:32:20;;;;;;;9.58;2.52;;;;;;;23.97;25.93;99505.59;2244675;79;21065;-79
2021/06/02 08:35:22;;;;;;;9.08;8.25;;;;;;;23.99;25.10;99505.54;2235924;79;20981;-81
2021/06/02 08:38:24;;;;;;;3.22;2.92;;;;;;;23.68;24.88;99508.30;2228009;79;21029;-81
2021/06/02 08:41:25;;;;;;;2.30;1.92;;;;;;;23.58;24.70;99508.17;2241052;79;21084;-81
2021/06/02 08:44:26;;;;;;;5.85;2.02;;;;;;;23.54;25.25;99510.02;2246801;79;21069;-81
2021/06/02 08:47:26;;;;;;;9.25;2.27;;;;;;;23.72;25.95;99514.82;2158797;82;21418;-81
2021/06/02 08:50:27;;;;;;;2.20;2.00;;;;;;;23.78;26.37;99512.42;2228394;79;21077;-83
2021/06/02 08:53:28;;;;;;;3.12;2.40;;;;;;;23.77;25.59;99512.02;2144550;82;21394;-84
2021/06/02 08:56:29;;;;;;;2.30;2.10;;;;;;;23.74;26.16;99514.31;2148580;82;21015;-82
2021/06/02 09:00:01;;;;;;;3.67;2.40;;;;;;;23.93;25.61;99516.41;2239314;79;21979;-81
2021/06/02 09:03:02;;;;;;;6.33;2.60;;;;;;;24.26;25.45;99517.97;2190012;81;21403;-81
2021/06/02 09:06:07;;;;;;;5.20;2.15;;;;;;;24.86;25.55;99518.66;2190273;81;21030;-82
2021/06/02 09:09:06;;;;;;;7.03;2.70;;;;;;;25.30;24.61;99508.63;2148413;83;20987;-80
2021/06/02 09:12:14;;;;;;;4.55;2.40;;;;;;;25.16;24.72;99504.25;2148999;83;21714;-79
2021/06/02 09:15:13;;;;;;;4.67;2.15;;;;;;;24.79;24.87;99509.99;2148836;83;21012;-81
2021/06/02 09:18:14;;;;;;;7.67;2.17;;;;;;;24.48;25.58;99515.98;2148932;83;21401;-81
2021/06/02 09:21:16;;;;;;;6.40;2.45;;;;;;;24.05;24.75;99509.34;2120670;83;20970;-80
2021/06/02 09:24:17;;;;;;;3.42;2.35;;;;;;;23.51;26.01;99508.32;2148996;83;21042;-80
2021/06/02 09:27:18;;;;;;;5.37;2.33;;;;;;;23.31;26.99;99506.67;2148990;83;21079;-80
2021/06/02 09:30:19;;;;;;;3.55;2.00;;;;;;;23.53;26.91;99503.41;2149511;83;20994;-81
2021/06/02 09:33:20;;;;;;;6.60;2.47;;;;;;;23.84;26.83;99506.91;2149145;83;21006;-81
2021/06/02 09:36:22;;;;;;;5.03;2.58;;;;;;;23.93;27.30;99501.28;2148899;83;21394;-81
2021/06/02 09:39:23;;;;;;;5.40;3.67;;;;;;;24.18;26.76;99495.14;2149504;83;21056;-80
2021/06/02 09:42:26;;;;;;;4.55;2.92;;;;;;;23.90;26.43;99486.71;2132954;83;21329;-82
2021/06/02 09:45:26;;;;;;;5.20;2.77;;;;;;;23.51;26.67;99487.47;2148997;83;21007;-81
2021/06/02 09:48:27;;;;;;;5.00;2.30;;;;;;;23.22;27.60;99484.77;2148371;83;21090;-82
2021/06/02 09:51:28;;;;;;;2.90;2.70;;;;;;;22.98;27.95;99483.69;2149046;83;21026;-81
2021/06/02 09:54:29;;;;;;;6.75;2.80;;;;;;;22.83;27.94;99494.30;2149272;83;20975;-81
2021/06/02 09:57:31;;;;;;;6.03;2.35;;;;;;;22.71;28.58;99491.48;2148142;83;21114;-80
2021/06/02 10:00:32;;;;;;;3.77;2.45;;;;;;;22.56;28.43;99483.91;2139012;83;20971;-80
2021/06/02 10:03:34;;;;;;;3.62;2.75;;;;;;;22.38;28.91;99490.56;2139083;83;21177;-81
2021/06/02 10:06:35;;;;;;;5.33;2.83;;;;;;;22.25;29.24;99486.01;2139326;83;21367;-81
2021/06/02 10:09:36;;;;;;;2.52;2.27;;;;;;;22.13;28.90;99491.64;2139039;83;21389;-81
2021/06/02 10:12:37;;;;;;;7.70;2.77;;;;;;;22.15;28.69;99485.82;2138990;83;20963;-80
2021/06/02 10:15:39;;;;;;;3.80;2.50;;;;;;;22.14;28.51;99493.84;2138444;83;21059;-79
2021/06/02 10:18:40;;;;;;;8.00;2.60;;;;;;;22.05;28.13;99486.96;2138579;83;21051;-80
2021/06/02 10:21:42;;;;;;;9.13;2.85;;;;;;;21.79;28.14;99477.38;2138356;83;21412;-79
2021/06/02 10:24:43;;;;;;;16.93;3.47;;;;;;;21.69;29.41;99481.16;2138628;83;20987;-81
2021/06/02 10:27:44;;;;;;;3.62;2.10;;;;;;;21.80;29.75;99495.07;2138174;83;21042;-80
2021/06/02 10:30:45;;;;;;;44.05;5.03;;;;;;;21.89;29.72;99490.87;2137766;83;21462;-79
2021/06/02 10:33:46;;;;;;;9.28;2.95;;;;;;;21.92;28.74;99489.47;2138457;83;20995;-81
2021/06/02 10:39:48;;;;;;;7.00;2.40;;;;;;;21.99;28.74;99484.42;2138304;83;21015;-80
2021/06/02 10:42:49;;;;;;;3.12;2.00;;;;;;;22.04;27.46;99479.90;2138372;83;21055;-80
2021/06/02 10:45:50;;;;;;;2.72;1.87;;;;;;;22.09;27.98;99487.30;2138888;83;21447;-80
2021/06/02 10:48:51;;;;;;;8.85;2.80;;;;;;;22.06;27.35;99486.05;2138755;83;21123;-80
2021/06/02 10:51:53;;;;;;;7.97;2.55;;;;;;;21.92;27.41;99486.80;2138984;83;21003;-80
2021/06/02 10:54:54;;;;;;;7.53;2.50;;;;;;;21.84;27.95;99487.45;2138501;83;21074;-78
2021/06/02 10:57:55;;;;;;;5.37;2.10;;;;;;;22.28;27.93;99486.84;2137491;83;21110;-79
2021/06/02 11:00:56;;;;;;;6.28;2.20;;;;;;;22.28;27.96;99482.86;2138371;83;20955;-79
2021/06/02 11:03:57;;;;;;;4.83;2.12;;;;;;;22.26;28.07;99478.91;2138955;83;21282;-78
2021/06/02 11:06:58;;;;;;;3.00;2.35;;;;;;;22.30;27.62;99475.71;2138410;83;21027;-79
2021/06/02 11:13:02;;;;;;;2.22;1.98;;;;;;;23.64;25.05;99468.01;2120618;83;21074;-80
2021/06/02 11:16:03;;;;;;;2.58;2.10;;;;;;;24.13;25.10;99465.95;2138482;83;21031;-80
2021/06/02 11:19:04;;;;;;;5.30;2.35;;;;;;;24.53;23.25;99470.00;2138694;83;21002;-81
2021/06/02 11:22:05;;;;;;;4.28;2.00;;;;;;;25.00;23.99;99465.66;2139166;83;20939;-81
2021/06/02 11:25:06;;;;;;;3.25;2.42;;;;;;;25.43;23.95;99467.60;2138535;83;21035;-81
2021/06/02 11:28:07;;;;;;;3.25;2.20;;;;;;;25.82;22.93;99465.66;2137860;83;21073;-81
2021/06/02 11:31:08;;;;;;;6.85;2.22;;;;;;;25.94;22.12;99470.03;2137467;83;20971;-79
2021/06/02 11:34:09;;;;;;;5.53;2.22;;;;;;;25.93;22.07;99469.63;2138146;83;21423;-78
2021/06/02 11:37:11;;;;;;;4.40;2.65;;;;;;;26.11;21.96;99471.18;2138039;83;21055;-81
2021/06/02 11:40:15;;;;;;;4.30;2.05;;;;;;;25.99;21.69;99469.84;2138474;83;21003;-79
2021/06/02 11:43:16;;;;;;;11.43;2.67;;;;;;;25.69;22.25;99463.94;2183596;81;20991;-82
2021/06/02 11:46:18;;;;;;;3.08;2.37;;;;;;;25.20;22.75;99466.27;2182782;82;20983;-80
2021/06/02 11:49:18;;;;;;;11.25;2.75;;;;;;;24.77;23.58;99478.01;2183525;82;20967;-80
2021/06/02 11:52:20;;;;;;;2.42;2.20;;;;;;;24.22;23.68;99475.45;2183563;82;21012;-81
2021/06/02 11:55:20;;;;;;;3.67;2.00;;;;;;;23.57;24.22;99470.45;2183865;82;20989;-82
2021/06/02 11:58:22;;;;;;;15.63;3.58;;;;;;;23.18;25.20;99477.33;2181144;82;21048;-81
2021/06/02 12:01:23;;;;;;;4.28;2.15;;;;;;;23.13;25.22;99473.92;2173248;82;20937;-80
2021/06/02 12:04:25;;;;;;;6.50;2.30;;;;;;;23.72;24.22;99464.18;2173668;82;21028;-81
2021/06/02 12:07:26;;;;;;;7.58;2.37;;;;;;;24.24;23.42;99457.13;2174219;81;20981;-81
2021/06/02 12:10:27;;;;;;;4.08;2.33;;;;;;;24.46;24.40;99469.34;2174349;81;21036;-80
2021/06/02 12:13:28;;;;;;;2.70;2.02;;;;;;;24.15;23.98;99472.98;2174118;81;20996;-81
2021/06/02 12:16:29;;;;;;;3.62;2.33;;;;;;;23.64;24.82;99468.01;2173976;81;20964;-80
2021/06/02 12:19:30;;;;;;;3.30;2.20;;;;;;;23.54;25.62;99473.17;2173876;82;20992;-80
2021/06/02 12:22:31;;;;;;;5.42;2.27;;;;;;;24.01;24.70;99477.03;2174535;82;21037;-80
2021/06/02 12:25:32;;;;;;;5.65;2.22;;;;;;;24.25;24.31;99475.34;2173416;82;20980;-82
2021/06/02 12:28:33;;;;;;;3.17;2.08;;;;;;;24.56;24.24;99464.09;2173695;81;21471;-80
2021/06/02 12:31:34;;;;;;;2.90;2.05;;;;;;;24.98;24.26;99472.84;2172644;82;20992;-80
2021/06/02 12:34:36;;;;;;;2.72;2.45;;;;;;;25.05;23.40;99471.70;2172825;82;21016;-80
2021/06/02 12:37:38;;;;;;;4.65;2.50;;;;;;;24.39;23.86;99481.15;2172484;81;21122;-79
2021/06/02 12:40:39;;;;;;;3.00;2.22;;;;;;;23.73;24.59;99478.38;2172752;82;21024;-81
2021/06/02 12:43:46;;;;;;;6.40;2.47;;;;;;;23.47;25.17;99478.70;2173049;81;20989;-79
2021/06/02 12:46:43;;;;;;;3.72;2.00;;;;;;;23.66;24.40;99472.37;2127610;83;21359;-82
2021/06/02 12:49:44;;;;;;;19.95;18.15;;;;;;;23.76;24.23;99471.62;2128095;84;20960;-79
2021/06/02 12:52:45;;;;;;;4.08;3.67;;;;;;;23.99;24.01;99466.41;2173160;81;21024;-80
2021/06/02 12:55:46;;;;;;;72.82;8.53;;;;;;;24.32;24.83;99460.94;2172904;82;21012;-80
2021/06/02 12:58:47;;;;;;;3.98;2.20;;;;;;;24.87;24.12;99469.67;2176499;81;21392;-80
2021/06/02 13:01:48;;;;;;;2.70;1.90;;;;;;;25.12;23.21;99449.17;2189960;81;20987;-81
2021/06/02 13:04:49;;;;;;;4.87;1.90;;;;;;;25.58;23.34;99458.11;2190172;81;21016;-80
2021/06/02 13:07:50;;;;;;;5.47;2.22;;;;;;;25.78;23.09;99456.88;2190316;81;20960;-80
2021/06/02 13:10:51;;;;;;;8.93;2.00;;;;;;;26.10;22.46;99450.71;2190178;81;20972;-81
2021/06/02 13:13:52;;;;;;;16.93;3.33;;;;;;;26.31;21.46;99456.50;2190055;81;20984;-82
2021/06/02 13:16:53;;;;;;;6.22;2.12;;;;;;;26.58;21.91;99449.98;2190195;81;21015;-81
2021/06/02 13:19:54;;;;;;;3.08;1.85;;;;;;;26.64;22.04;99457.75;2190275;81;20996;-81
2021/06/02 13:22:55;;;;;;;3.40;2.17;;;;;;;26.27;22.18;99459.77;2190428;81;20983;-81
2021/06/02 13:25:56;;;;;;;3.67;2.05;;;;;;;25.53;22.95;99462.77;2190311;81;20940;-81
2021/06/02 13:28:57;;;;;;;746.20;83.82;;;;;;;25.14;23.49;99467.34;2189692;81;21023;-81
2021/06/02 13:31:59;;;;;;;8.65;2.47;;;;;;;24.82;23.88;99467.16;2190134;81;20975;-81
2021/06/02 13:35:00;;;;;;;7.30;2.10;;;;;;;24.61;23.85;99470.60;2190302;81;20951;-79
2021/06/02 13:38:01;;;;;;;3.17;2.00;;;;;;;24.79;23.94;99460.60;2190419;81;20999;-82
2021/06/02 13:41:02;;;;;;;28.00;13.40;;;;;;;25.17;23.38;99461.92;2190399;81;21388;-82
2021/06/02 13:44:03;;;;;;;5.15;2.62;;;;;;;25.27;23.37;99466.45;2190234;81;21383;-82
2021/06/02 13:47:04;;;;;;;2.30;2.12;;;;;;;25.36;23.46;99470.98;2189879;81;21352;-80
2021/06/02 13:50:05;;;;;;;2.75;2.20;;;;;;;25.48;22.93;99470.97;2189926;81;20987;-79
2021/06/02 13:53:06;;;;;;;4.47;1.95;;;;;;;25.75;22.62;99467.70;2190636;81;20980;-81
2021/06/02 13:56:07;;;;;;;4.10;1.87;;;;;;;25.84;22.91;99464.66;2190090;81;21316;-80
2021/06/02 13:59:08;;;;;;;5.65;2.45;;;;;;;25.93;22.48;99461.61;2189958;81;21460;-80
2021/06/02 14:02:09;;;;;;;2.92;2.10;;;;;;;25.96;22.43;99469.97;2190686;81;21023;-82
2021/06/02 14:05:12;;;;;;;9.28;2.90;;;;;;;25.95;21.67;99463.75;2190599;81;20999;-80
2021/06/02 14:08:13;;;;;;;8.50;6.15;;;;;;;26.06;21.79;99462.48;2190895;81;20952;-81
2021/06/02 14:11:14;;;;;;;11.53;6.62;;;;;;;26.17;22.16;99455.73;2190679;81;20964;-83
2021/06/02 14:14:15;;;;;;;10.53;2.40;;;;;;;26.06;23.09;99469.16;2190582;81;20979;-81
2021/06/02 14:17:16;;;;;;;14.47;5.10;;;;;;;25.37;22.98;99474.05;2190816;81;20964;-81